Terminal Aerodrome Forecast
Issued by NWS

Current Version | Previous Version | Text Only | Print | Product List | Glossary On
Versions: 1 2 3 4 5 6 7 8 9 10 11 12 13
000
FTUS46 KSEW 182344
TAFCLM
TAF
KCLM 182344Z 1900/1924 VRB03KT P6SM SCT070 BKN120
     FM191400 22005KT P6SM -RA OVC050
     FM192300 27010KT 5SM -RA BR SCT020 OVC045=

USA.gov is the U.S. government's official web portal to all federal, state and local government web resources and services.